CYAZ

Tofino / Long Beach Airport

Tofino, , Canada
METAR CYAZ 170007Z 16007KT 1 1/2SM -RA BR BKN005 OVC012 10/10 A2951 RMK SF6SC2 VIS VRB 1-2 SLP996
Observed Flight Rules
Dec-17 @ 00:07 UTC (24 minutes ago) Instrument Flight Rules
Wind Visibility Clouds Conditions
160° at 7 knots 1 1/2 miles
  • Broken at 500' AGL
  • Overcast at 1,200' AGL
  • Light Rain
  • Mist
Temperatures Readings
Current 10°C / 50°F
Dewpoint 10°C / 50°F
Humidity 100%
Altimeter 29.51" Hg
Pressure 999.6 hPa
Elevation 24
METAR CYAZ 170007Z 16007KT 1 1/2SM -RA BR BKN005 OVC012 10/10 A2951 RMK SF6SC2 VIS VRB 1-2 SLP996
Observed Flight Rules
Dec-17 @ 00:07 UTC
(24 minutes ago)
IFR
Wind Visibility
160° at 7 knots 1 1/2 miles
Clouds
  • Broken at 500' AGL
  • Overcast at 1,200' AGL
Conditions
  • Light Rain
  • Mist
Temperature Dewpoint
10°C / 50°F 10°C / 50°F
Humidity Altimeter Pressure
100% 29.51" Hg 999.6 hPa